createdAt,value
2023-01-10T00:01:43.166Z,99.51
2023-01-10T00:04:11.144Z,98.09
2023-01-10T00:06:38.946Z,100.00
2023-01-10T00:09:06.716Z,99.03
2023-01-10T00:11:52.115Z,100.00
2023-01-10T00:14:20.026Z,100.00
2023-01-10T00:16:49.203Z,100.00
2023-01-10T00:19:16.985Z,100.00
2023-01-10T00:21:44.693Z,100.00
2023-01-10T00:24:19.782Z,100.00
2023-01-10T00:26:51.860Z,100.00
2023-01-10T00:29:20.677Z,100.00
2023-01-10T00:31:50.212Z,100.00
2023-01-10T00:34:18.348Z,100.00
2023-01-10T00:36:47.815Z,100.00
2023-01-10T00:39:16.211Z,100.00
2023-01-10T00:42:01.450Z,100.00
2023-01-10T00:44:29.182Z,100.00
2023-01-10T00:46:58.289Z,100.00
2023-01-10T00:49:25.984Z,100.00
2023-01-10T00:51:57.993Z,100.00
2023-01-10T00:54:25.821Z,100.00
2023-01-10T00:56:53.519Z,100.00
2023-01-10T00:59:21.299Z,100.00
2023-01-10T01:01:49.254Z,100.00
2023-01-10T01:04:18.423Z,100.00
2023-01-10T01:06:47.664Z,100.00
2023-01-10T01:09:15.857Z,100.00
2023-01-10T01:11:43.986Z,100.00
2023-01-10T01:14:11.751Z,100.00
2023-01-10T01:16:39.440Z,100.00
2023-01-10T01:19:07.176Z,100.00
2023-01-10T01:21:36.229Z,100.00
2023-01-10T01:24:04.107Z,100.00
2023-01-10T01:26:31.992Z,100.00
2023-01-10T01:28:59.781Z,100.00
2023-01-10T01:31:27.680Z,100.00
2023-01-10T01:33:55.630Z,100.00
2023-01-10T01:36:23.347Z,100.00
2023-01-10T01:38:52.440Z,100.00
2023-01-10T01:41:37.803Z,100.00
2023-01-10T01:44:07.691Z,100.00
2023-01-10T01:46:38.084Z,100.00
2023-01-10T01:49:13.073Z,100.00
2023-01-10T01:51:40.924Z,100.00
2023-01-10T01:54:13.022Z,100.00
2023-01-10T01:56:44.651Z,100.00
2023-01-10T01:59:15.110Z,100.00
2023-01-10T02:01:44.631Z,100.00
2023-01-10T02:04:18.091Z,100.00
2023-01-10T02:06:47.096Z,100.00
2023-01-10T02:09:21.967Z,100.00
2023-01-10T02:11:50.029Z,100.00
2023-01-10T02:14:18.646Z,100.00
2023-01-10T02:16:46.543Z,100.00
2023-01-10T02:19:25.138Z,100.00
2023-01-10T02:22:41.772Z,100.00
2023-01-10T02:25:35.516Z,100.00
2023-01-10T02:28:26.277Z,100.00
2023-01-10T02:31:20.755Z,100.00
2023-01-10T02:34:00.268Z,100.00
2023-01-10T02:36:39.455Z,100.00
2023-01-10T02:39:17.326Z,100.00
2023-01-10T02:41:52.451Z,100.00
2023-01-10T02:44:25.655Z,100.00
2023-01-10T02:46:53.518Z,100.00
2023-01-10T02:49:22.658Z,100.00
2023-01-10T02:51:50.377Z,100.00
2023-01-10T02:54:20.954Z,100.00
2023-01-10T02:57:26.745Z,100.00
2023-01-10T03:00:20.239Z,100.00
2023-01-10T03:03:14.187Z,100.00
2023-01-10T03:06:07.705Z,100.00
2023-01-10T03:08:40.578Z,100.00
2023-01-10T03:11:10.252Z,100.00
2023-01-10T03:13:44.404Z,100.00
2023-01-10T03:16:16.855Z,100.00
2023-01-10T03:18:49.261Z,100.00
2023-01-10T03:21:21.368Z,100.00
2023-01-10T03:23:51.857Z,100.00
2023-01-10T03:26:31.230Z,100.00
2023-01-10T03:29:05.090Z,100.00
2023-01-10T03:31:40.188Z,100.00
2023-01-10T03:34:08.193Z,100.00
2023-01-10T03:36:46.714Z,100.00
2023-01-10T03:39:20.337Z,100.00
2023-01-10T03:41:54.262Z,100.00
2023-01-10T03:44:46.234Z,100.00
2023-01-10T03:47:20.313Z,100.00
2023-01-10T03:49:51.545Z,100.00
2023-01-10T03:52:21.804Z,100.00
2023-01-10T03:54:49.663Z,100.00
2023-01-10T03:57:23.847Z,100.00
2023-01-10T03:59:55.101Z,100.00
2023-01-10T04:02:23.149Z,100.00
2023-01-10T04:04:51.192Z,100.00
2023-01-10T04:07:20.392Z,100.00
2023-01-10T04:09:48.236Z,100.00
2023-01-10T04:12:16.276Z,100.00
2023-01-10T04:14:45.449Z,100.00
2023-01-10T04:17:13.477Z,100.00
2023-01-10T04:19:41.864Z,100.00
2023-01-10T04:22:09.699Z,100.00
2023-01-10T04:24:39.494Z,100.00
2023-01-10T04:27:07.649Z,100.00
2023-01-10T04:29:35.469Z,100.00
2023-01-10T04:32:03.218Z,100.00
2023-01-10T04:34:31.073Z,99.78
2023-01-10T04:36:58.850Z,100.00
2023-01-10T04:39:26.781Z,100.00
2023-01-10T04:41:56.051Z,99.14
2023-01-10T04:44:23.982Z,98.09
2023-01-10T04:46:51.968Z,100.00
2023-01-10T04:49:19.965Z,100.00
2023-01-10T04:51:47.982Z,100.00
2023-01-10T04:54:16.175Z,98.96
2023-01-10T04:56:44.226Z,100.00
2023-01-10T04:59:13.358Z,100.00
2023-01-10T05:01:41.408Z,99.37
2023-01-10T05:04:10.091Z,98.11
2023-01-10T05:06:40.062Z,99.69
2023-01-10T05:09:08.060Z,100.00
2023-01-10T05:11:37.841Z,100.00
2023-01-10T05:14:05.875Z,100.00
2023-01-10T05:16:35.308Z,100.00
2023-01-10T05:19:03.402Z,100.00
2023-01-10T05:21:31.452Z,100.00
2023-01-10T05:23:59.263Z,100.00
2023-01-10T05:26:27.089Z,100.00
2023-01-10T05:28:54.918Z,100.00
2023-01-10T05:31:23.113Z,100.00
2023-01-10T05:33:53.329Z,100.00
2023-01-10T05:36:21.378Z,100.00
2023-01-10T05:38:49.297Z,100.00
2023-01-10T05:41:17.116Z,100.00
2023-01-10T05:43:44.859Z,100.00
2023-01-10T05:46:12.819Z,100.00
2023-01-10T05:48:40.660Z,100.00
2023-01-10T05:51:09.963Z,100.00
2023-01-10T05:53:37.829Z,100.00
2023-01-10T05:56:07.715Z,100.00
2023-01-10T05:58:35.819Z,99.66
2023-01-10T06:01:04.311Z,99.03
2023-01-10T06:03:32.863Z,98.72
2023-01-10T06:06:01.150Z,98.40
2023-01-10T06:08:31.429Z,98.71
2023-01-10T06:11:00.356Z,97.92
2023-01-10T06:13:29.372Z,98.62
2023-01-10T06:15:59.448Z,99.69
2023-01-10T06:18:28.765Z,99.93
2023-01-10T06:20:57.866Z,100.00
2023-01-10T06:23:26.423Z,100.00
2023-01-10T06:25:56.213Z,100.00
2023-01-10T06:28:30.739Z,100.00
2023-01-10T06:30:59.515Z,100.00
2023-01-10T06:33:30.840Z,100.00
2023-01-10T06:35:58.878Z,100.00
2023-01-10T06:38:26.797Z,100.00
2023-01-10T06:40:56.125Z,100.00
2023-01-10T06:43:25.831Z,100.00
2023-01-10T06:45:54.046Z,100.00
2023-01-10T06:48:22.314Z,100.00
2023-01-10T06:50:51.419Z,100.00
2023-01-10T06:53:19.411Z,100.00
2023-01-10T06:55:50.615Z,100.00
2023-01-10T06:58:19.815Z,99.78
2023-01-10T07:00:48.041Z,97.54
2023-01-10T07:03:16.097Z,98.95
2023-01-10T07:05:44.171Z,98.11
2023-01-10T07:08:12.080Z,98.06
2023-01-10T07:10:41.696Z,98.33
2023-01-10T07:13:09.839Z,97.98
2023-01-10T07:15:39.076Z,97.68
2023-01-10T07:18:06.869Z,96.85
2023-01-10T07:20:34.758Z,98.07
2023-01-10T07:23:02.832Z,97.05
2023-01-10T07:25:31.188Z,97.74
2023-01-10T07:27:59.354Z,97.81
2023-01-10T07:30:27.331Z,98.92
2023-01-10T07:32:57.710Z,98.56
2023-01-10T07:35:27.642Z,98.71
2023-01-10T07:37:55.445Z,98.34
2023-01-10T07:40:23.407Z,98.04
2023-01-10T07:42:51.380Z,98.37
2023-01-10T07:45:19.225Z,97.07
2023-01-10T07:47:46.929Z,96.07
2023-01-10T07:50:18.110Z,96.09
2023-01-10T07:52:46.072Z,97.20
2023-01-10T07:55:13.957Z,96.63
2023-01-10T07:57:41.861Z,96.63
2023-01-10T08:00:12.198Z,96.58
2023-01-10T08:02:40.057Z,96.05
2023-01-10T08:05:08.522Z,96.14
2023-01-10T08:07:38.411Z,94.34
2023-01-10T08:10:07.464Z,94.51
2023-01-10T08:12:35.448Z,95.23
2023-01-10T08:15:03.292Z,94.55
2023-01-10T08:17:34.421Z,93.71
2023-01-10T08:20:02.693Z,94.15
2023-01-10T08:22:30.474Z,92.63
2023-01-10T08:24:59.668Z,93.33
2023-01-10T08:27:27.449Z,93.83
2023-01-10T08:29:55.216Z,93.32
2023-01-10T08:32:23.544Z,92.84
2023-01-10T08:34:51.428Z,93.59
2023-01-10T08:37:19.230Z,93.58
2023-01-10T08:39:47.063Z,92.75
2023-01-10T08:42:18.672Z,92.78
2023-01-10T08:44:46.902Z,92.21
2023-01-10T08:47:15.111Z,92.10
2023-01-10T08:49:43.085Z,92.39
2023-01-10T08:52:11.090Z,91.42
2023-01-10T08:54:39.179Z,90.19
2023-01-10T08:57:07.034Z,90.22
2023-01-10T08:59:36.700Z,90.35
2023-01-10T09:02:05.173Z,90.14
2023-01-10T09:04:33.276Z,89.92
2023-01-10T09:07:01.283Z,90.61
2023-01-10T09:09:29.301Z,89.92
2023-01-10T09:11:57.540Z,89.86
2023-01-10T09:14:25.744Z,87.90
2023-01-10T09:16:54.967Z,88.08
2023-01-10T09:19:22.855Z,87.63
2023-01-10T09:21:50.705Z,88.57
2023-01-10T09:24:18.504Z,89.30
2023-01-10T09:26:46.390Z,87.61
2023-01-10T09:29:14.403Z,88.88
2023-01-10T09:31:42.392Z,87.76
2023-01-10T09:34:14.986Z,88.37
2023-01-10T09:36:42.953Z,88.86
2023-01-10T09:39:10.909Z,89.96
2023-01-10T09:41:57.210Z,88.51
2023-01-10T09:44:38.498Z,89.02
2023-01-10T09:47:22.379Z,90.10
2023-01-10T09:50:01.218Z,89.72
2023-01-10T09:52:33.969Z,89.06
2023-01-10T09:55:17.897Z,88.86
2023-01-10T09:57:46.605Z,87.53
2023-01-10T10:00:21.157Z,87.83
2023-01-10T10:02:53.565Z,88.20
2023-01-10T10:05:24.544Z,87.70
2023-01-10T10:07:56.115Z,88.86
2023-01-10T10:10:27.170Z,89.85
2023-01-10T10:13:14.005Z,87.51
2023-01-10T10:15:50.767Z,89.02
2023-01-10T10:18:33.600Z,88.99
2023-01-10T10:21:09.543Z,88.65
2023-01-10T10:24:11.116Z,88.73
2023-01-10T10:26:47.816Z,87.81
2023-01-10T10:29:31.593Z,88.21
2023-01-10T10:32:11.737Z,86.75
2023-01-10T10:34:43.035Z,84.20
2023-01-10T10:37:21.363Z,85.46
2023-01-10T10:39:53.383Z,86.78
2023-01-10T10:42:21.356Z,85.73
2023-01-10T10:44:56.347Z,85.86
2023-01-10T10:47:29.078Z,83.80
2023-01-10T10:50:06.997Z,83.08
2023-01-10T10:52:37.700Z,82.31
2023-01-10T10:55:08.115Z,83.36
2023-01-10T10:57:43.450Z,84.38
2023-01-10T11:00:22.687Z,84.62
2023-01-10T11:02:54.362Z,83.06
2023-01-10T11:05:30.576Z,84.08
2023-01-10T11:08:04.361Z,83.88
2023-01-10T11:10:36.806Z,82.63
2023-01-10T11:13:07.187Z,83.36
2023-01-10T11:15:43.498Z,83.05
2023-01-10T11:18:16.763Z,81.58
2023-01-10T11:20:50.291Z,81.80
2023-01-10T11:23:41.642Z,81.67
2023-01-10T11:26:11.612Z,81.61
2023-01-10T11:28:39.779Z,82.86
2023-01-10T11:31:08.208Z,82.89
2023-01-10T11:33:37.000Z,83.44
2023-01-10T11:36:07.415Z,83.85
2023-01-10T11:38:37.192Z,83.50
2023-01-10T11:41:06.629Z,83.84
2023-01-10T11:43:36.776Z,82.01
2023-01-10T11:46:13.452Z,81.97
2023-01-10T11:49:04.964Z,81.78
2023-01-10T11:51:38.102Z,82.45
2023-01-10T11:54:12.467Z,81.32
2023-01-10T11:56:41.660Z,82.77
2023-01-10T11:59:12.803Z,81.06
2023-01-10T12:01:44.407Z,81.15
2023-01-10T12:04:16.870Z,82.82
2023-01-10T12:06:46.860Z,81.76
2023-01-10T12:09:36.656Z,81.68
2023-01-10T12:12:07.275Z,82.05
2023-01-10T12:14:36.276Z,81.51
2023-01-10T12:17:06.022Z,80.20
2023-01-10T12:19:34.820Z,79.37
2023-01-10T12:22:08.928Z,79.52
2023-01-10T12:24:44.243Z,78.47
2023-01-10T12:27:15.627Z,79.37
2023-01-10T12:29:48.917Z,79.43
2023-01-10T12:32:22.712Z,78.88
2023-01-10T12:35:00.911Z,77.92
2023-01-10T12:37:36.870Z,77.53
2023-01-10T12:40:16.743Z,76.71
2023-01-10T12:43:12.925Z,77.55
2023-01-10T12:45:45.242Z,77.32
2023-01-10T12:48:23.705Z,77.08
2023-01-10T12:50:55.677Z,77.39
2023-01-10T12:53:31.398Z,77.02
2023-01-10T12:56:05.168Z,77.23
2023-01-10T12:58:43.141Z,77.29
2023-01-10T13:01:14.915Z,77.15
2023-01-10T13:03:44.613Z,75.04
2023-01-10T13:06:22.508Z,76.02
2023-01-10T13:08:52.138Z,75.97
2023-01-10T13:11:26.195Z,75.25
2023-01-10T13:14:00.637Z,74.38
2023-01-10T13:16:36.383Z,73.27
2023-01-10T13:19:23.027Z,73.14
2023-01-10T13:21:52.367Z,74.42
2023-01-10T13:24:22.618Z,72.03
2023-01-10T13:26:54.297Z,72.24
2023-01-10T13:29:24.924Z,71.87
2023-01-10T13:31:57.625Z,73.10
2023-01-10T13:34:33.007Z,72.64
2023-01-10T13:37:04.090Z,72.77
2023-01-10T13:39:35.886Z,72.82
2023-01-10T13:42:44.958Z,71.96
2023-01-10T13:45:24.054Z,72.25
2023-01-10T13:48:06.511Z,71.85
2023-01-10T13:50:58.213Z,72.19
2023-01-10T13:53:59.898Z,72.23
2023-01-10T13:56:39.289Z,72.88
2023-01-10T13:59:31.741Z,72.71
2023-01-10T14:02:19.423Z,73.63
2023-01-10T14:04:50.597Z,72.78
2023-01-10T14:07:28.303Z,73.81
2023-01-10T14:10:04.556Z,73.65
2023-01-10T14:12:36.708Z,73.02
2023-01-10T14:15:22.832Z,73.65
2023-01-10T14:18:01.983Z,74.22
2023-01-10T14:20:35.067Z,73.63
2023-01-10T14:23:06.658Z,73.83
2023-01-10T14:25:36.552Z,73.53
2023-01-10T14:28:06.600Z,73.36
2023-01-10T14:30:40.236Z,72.64
2023-01-10T14:33:14.617Z,72.49
2023-01-10T14:35:46.067Z,73.13
2023-01-10T14:38:20.178Z,73.07
2023-01-10T14:40:53.791Z,72.72
2023-01-10T14:43:26.652Z,73.33
2023-01-10T14:46:02.047Z,73.18
2023-01-10T14:48:32.111Z,72.39
2023-01-10T14:51:25.575Z,73.29
2023-01-10T14:53:57.975Z,74.13
2023-01-10T14:56:28.163Z,73.70
2023-01-10T14:58:56.256Z,73.19
2023-01-10T15:01:28.984Z,72.79
2023-01-10T15:03:58.585Z,72.67
2023-01-10T15:06:26.967Z,72.77
2023-01-10T15:08:59.924Z,72.85
2023-01-10T15:11:30.227Z,72.60
2023-01-10T15:14:04.845Z,71.94
2023-01-10T15:16:37.174Z,72.12
2023-01-10T15:19:05.764Z,71.98
2023-01-10T15:21:33.915Z,71.84
2023-01-10T15:24:01.887Z,72.17
2023-01-10T15:26:34.247Z,71.39
2023-01-10T15:29:13.650Z,71.75
2023-01-10T15:31:44.748Z,71.53
2023-01-10T15:34:19.073Z,71.74
2023-01-10T15:36:51.088Z,72.48
2023-01-10T15:39:22.300Z,73.33
2023-01-10T15:41:56.107Z,73.73
2023-01-10T15:44:34.978Z,73.29
2023-01-10T15:47:04.576Z,73.94
2023-01-10T15:49:33.184Z,73.61
2023-01-10T15:52:01.378Z,73.38
2023-01-10T15:54:31.642Z,73.70
2023-01-10T15:57:07.506Z,73.88
2023-01-10T15:59:39.438Z,74.15
2023-01-10T16:02:22.362Z,73.57
2023-01-10T16:04:52.113Z,73.18
2023-01-10T16:07:25.084Z,72.59
2023-01-10T16:09:58.190Z,71.99
2023-01-10T16:12:46.381Z,72.20
2023-01-10T16:15:20.220Z,72.26
2023-01-10T16:17:50.959Z,72.57
2023-01-10T16:20:21.863Z,72.52
2023-01-10T16:22:51.430Z,72.54
2023-01-10T16:25:25.695Z,71.91
2023-01-10T16:27:56.185Z,72.97
2023-01-10T16:30:25.857Z,72.46
2023-01-10T16:32:57.265Z,72.56
2023-01-10T16:35:26.171Z,72.94
2023-01-10T16:37:56.518Z,72.60
2023-01-10T16:40:27.947Z,72.55
2023-01-10T16:43:14.598Z,73.00
2023-01-10T16:45:42.721Z,73.14
2023-01-10T16:48:11.908Z,72.82
2023-01-10T16:50:39.836Z,72.08
2023-01-10T16:53:08.050Z,71.11
2023-01-10T16:55:41.977Z,72.02
2023-01-10T16:58:10.857Z,72.50
2023-01-10T17:00:40.284Z,71.71
2023-01-10T17:03:16.588Z,71.73
2023-01-10T17:05:44.593Z,71.75
2023-01-10T17:08:17.266Z,71.23
2023-01-10T17:10:48.081Z,71.33
2023-01-10T17:13:20.851Z,71.20
2023-01-10T17:15:48.675Z,71.41
2023-01-10T17:18:19.831Z,71.34
2023-01-10T17:20:47.826Z,70.75
2023-01-10T17:23:15.975Z,70.85
2023-01-10T17:25:44.569Z,70.41
2023-01-10T17:28:13.006Z,70.08
2023-01-10T17:30:40.863Z,70.65
2023-01-10T17:33:11.990Z,70.56
2023-01-10T17:35:42.253Z,70.97
2023-01-10T17:38:12.014Z,69.88
2023-01-10T17:40:41.358Z,70.16
2023-01-10T17:43:11.346Z,70.37
2023-01-10T17:45:40.413Z,69.85
2023-01-10T17:48:08.999Z,69.73
2023-01-10T17:50:37.271Z,69.98
2023-01-10T17:53:06.694Z,69.27
2023-01-10T17:55:34.466Z,69.72
2023-01-10T17:58:03.626Z,70.72
2023-01-10T18:00:32.363Z,69.76
2023-01-10T18:03:02.410Z,69.66
2023-01-10T18:05:32.241Z,69.28
2023-01-10T18:08:01.083Z,69.17
2023-01-10T18:10:30.757Z,68.94
2023-01-10T18:12:58.745Z,69.12
2023-01-10T18:15:27.555Z,68.24
2023-01-10T18:17:55.633Z,68.02
2023-01-10T18:20:23.500Z,67.06
2023-01-10T18:23:08.838Z,67.68
2023-01-10T18:25:38.321Z,66.91
2023-01-10T18:28:06.479Z,66.80
2023-01-10T18:30:34.405Z,66.52
2023-01-10T18:33:02.345Z,66.36
2023-01-10T18:35:30.294Z,66.88
2023-01-10T18:37:58.824Z,66.13
2023-01-10T18:40:26.692Z,66.46
2023-01-10T18:42:57.652Z,66.35
2023-01-10T18:45:27.928Z,65.85
2023-01-10T18:47:57.616Z,65.98
2023-01-10T18:50:28.348Z,65.36
2023-01-10T18:52:56.212Z,65.86
2023-01-10T18:55:24.162Z,65.62
2023-01-10T18:57:52.044Z,65.83
2023-01-10T19:00:22.124Z,65.88
2023-01-10T19:02:50.062Z,65.40
2023-01-10T19:05:18.162Z,65.24
2023-01-10T19:07:46.038Z,64.54
2023-01-10T19:10:13.933Z,64.78
2023-01-10T19:12:42.393Z,65.49
2023-01-10T19:15:11.281Z,65.00
2023-01-10T19:17:40.475Z,64.60
2023-01-10T19:20:10.268Z,65.56
2023-01-10T19:22:38.196Z,65.27
2023-01-10T19:25:06.702Z,65.13
2023-01-10T19:27:34.906Z,65.52
2023-01-10T19:30:02.799Z,65.77
2023-01-10T19:32:31.642Z,67.31
2023-01-10T19:35:01.100Z,68.79
2023-01-10T19:37:29.196Z,70.00
2023-01-10T19:39:57.023Z,70.97
2023-01-10T19:42:26.119Z,71.82
2023-01-10T19:44:54.260Z,71.92
2023-01-10T19:47:22.159Z,72.70
2023-01-10T19:49:51.158Z,73.62
2023-01-10T19:52:20.624Z,73.52
2023-01-10T19:54:48.970Z,73.68
2023-01-10T19:57:17.257Z,75.39
2023-01-10T19:59:47.320Z,76.26
2023-01-10T20:02:15.599Z,77.21
2023-01-10T20:04:43.702Z,77.51
2023-01-10T20:07:11.549Z,77.01
2023-01-10T20:09:41.006Z,77.85
2023-01-10T20:12:12.496Z,78.35
2023-01-10T20:14:40.572Z,78.36
2023-01-10T20:17:09.340Z,77.67
2023-01-10T20:19:37.304Z,78.08
2023-01-10T20:22:05.199Z,77.19
2023-01-10T20:24:33.531Z,77.63
2023-01-10T20:27:04.565Z,77.96
2023-01-10T20:29:33.320Z,78.08
2023-01-10T20:32:02.911Z,77.55
2023-01-10T20:34:30.715Z,76.58
2023-01-10T20:36:59.075Z,76.63
2023-01-10T20:39:26.991Z,75.97
2023-01-10T20:41:54.890Z,76.29
2023-01-10T20:44:26.151Z,77.00
2023-01-10T20:46:55.241Z,77.08
2023-01-10T20:49:23.255Z,77.38
2023-01-10T20:51:53.698Z,77.91
2023-01-10T20:54:21.775Z,78.18
2023-01-10T20:56:49.768Z,80.16
2023-01-10T20:59:17.667Z,79.82
2023-01-10T21:01:47.002Z,81.78
2023-01-10T21:04:14.915Z,82.87
2023-01-10T21:06:43.012Z,83.07
2023-01-10T21:09:11.400Z,84.93
2023-01-10T21:11:56.639Z,84.96
2023-01-10T21:14:27.101Z,85.31
2023-01-10T21:16:56.540Z,87.39
2023-01-10T21:19:24.368Z,87.25
2023-01-10T21:21:52.316Z,88.23
2023-01-10T21:24:22.814Z,88.52
2023-01-10T21:26:50.857Z,88.11
2023-01-10T21:29:19.037Z,88.83
2023-01-10T21:31:46.850Z,88.19
2023-01-10T21:34:16.020Z,88.33
2023-01-10T21:36:43.856Z,87.63
2023-01-10T21:39:11.705Z,88.36
2023-01-10T21:42:11.497Z,88.49
2023-01-10T21:44:39.269Z,87.82
2023-01-10T21:47:07.085Z,87.83
2023-01-10T21:49:36.385Z,88.43
2023-01-10T21:52:04.283Z,87.95
2023-01-10T21:54:32.352Z,87.58
2023-01-10T21:57:00.202Z,86.21
2023-01-10T21:59:27.966Z,86.35
2023-01-10T22:01:56.138Z,86.07
2023-01-10T22:04:23.937Z,85.09
2023-01-10T22:06:53.070Z,84.89
2023-01-10T22:09:20.860Z,84.32
2023-01-10T22:11:48.656Z,84.21
2023-01-10T22:14:16.541Z,83.72
2023-01-10T22:16:44.305Z,82.73
2023-01-10T22:19:13.428Z,82.04
2023-01-10T22:21:41.244Z,81.73
2023-01-10T22:24:11.834Z,81.70
2023-01-10T22:26:39.861Z,80.36
2023-01-10T22:29:07.625Z,80.05
2023-01-10T22:31:35.465Z,80.11
2023-01-10T22:34:03.199Z,80.76
2023-01-10T22:36:30.868Z,80.73
2023-01-10T22:38:58.589Z,79.27
2023-01-10T22:41:28.720Z,79.96
2023-01-10T22:43:57.281Z,79.94
2023-01-10T22:46:25.248Z,79.36
2023-01-10T22:48:53.584Z,79.70
2023-01-10T22:51:22.424Z,80.03
2023-01-10T22:53:50.766Z,80.35
2023-01-10T22:56:18.876Z,80.32
2023-01-10T22:58:48.688Z,80.31
2023-01-10T23:01:17.994Z,80.54
2023-01-10T23:03:46.102Z,79.67
2023-01-10T23:06:15.505Z,78.95
2023-01-10T23:08:43.639Z,79.54
2023-01-10T23:11:13.516Z,79.78
2023-01-10T23:13:42.201Z,80.76
2023-01-10T23:16:14.317Z,80.69
2023-01-10T23:18:42.437Z,79.66
2023-01-10T23:21:10.817Z,78.95
2023-01-10T23:23:38.620Z,79.85
2023-01-10T23:26:08.783Z,80.08
2023-01-10T23:28:38.794Z,79.83
2023-01-10T23:31:07.869Z,80.10
2023-01-10T23:33:37.201Z,80.42
2023-01-10T23:36:05.215Z,79.90
2023-01-10T23:38:33.855Z,81.05
2023-01-10T23:41:01.742Z,81.18
2023-01-10T23:43:29.484Z,82.06
2023-01-10T23:45:57.452Z,82.11
2023-01-10T23:48:25.409Z,81.99
2023-01-10T23:50:54.539Z,81.49
2023-01-10T23:53:22.272Z,80.54
2023-01-10T23:55:50.049Z,80.75
2023-01-10T23:58:18.283Z,81.05
